.
WxDataArchive / Data Records for 2014-08-25
2014-08-24 August 2014 2014-08-26

Data Records for Monday, 25 August 2014

Time	Temp	Chill	HIndex	Humid	Dewpt	 Wind 	HiWind	WindDir	Rain 	Barom
-----	----	-----	------	-----	-----	------	------	-------	-----	-----
00:00	72.8	72.8	72.8	88	69.0	0	3	68	0.00	30.025 
00:05	72.7	72.7	72.7	88	68.9	1	4	68	0.00	30.025 
00:10	72.7	72.7	72.7	88	68.9	0	2	68	0.00	30.025 
00:15	72.5	72.5	72.5	88	68.7	0	3	68	0.00	30.025 
00:20	72.3	72.3	72.3	88	68.5	0	1	68	0.00	30.025 
00:25	72.3	72.3	72.3	89	68.9	0	2	68	0.00	30.025 
00:30	72.1	72.1	72.1	89	68.7	0	2	68	0.00	30.024 
00:35	72.0	72.0	72.0	89	68.6	0	1	68	0.00	30.024 
00:40	72.0	72.0	72.0	89	68.6	0	2	68	0.00	30.024 
00:45	72.0	72.0	72.0	89	68.6	0	2	68	0.00	30.024 
00:50	71.8	71.8	71.8	90	68.7	0	3	68	0.00	30.024 
00:55	71.8	71.8	71.8	90	68.7	0	3	68	0.00	30.024 
01:00	71.6	71.6	71.6	90	68.5	0	2	68	0.00	30.025 
01:05	71.6	71.6	71.6	90	68.5	0	1	68	0.00	30.025 
01:10	71.6	71.6	71.6	90	68.5	0	1	68	0.00	30.025 
01:15	71.5	71.5	71.5	90	68.4	0	1	68	0.00	30.022 
01:20	71.5	71.5	71.5	90	68.4	0	2	68	0.00	30.022 
01:25	71.5	71.5	71.5	90	68.4	1	4	68	0.00	30.022 
01:30	71.5	71.5	71.5	90	68.4	0	2	68	0.00	30.022 
01:35	71.5	71.5	71.5	90	68.4	0	2	68	0.00	30.022 
01:40	71.5	71.5	71.5	90	68.4	0	2	68	0.00	30.022 
01:45	71.3	71.3	71.3	90	68.2	0	1	68	0.00	30.022 
01:50	71.3	71.3	71.3	90	68.2	0	1	68	0.00	30.022 
01:55	71.3	71.3	71.3	90	68.2	0	1	68	0.00	30.022 
02:00	71.1	71.1	71.1	90	68.0	0	0	---	0.00	30.020 
02:05	70.9	70.9	70.9	91	68.1	0	0	---	0.00	30.020 
02:10	70.9	70.9	70.9	91	68.1	0	2	68	0.00	30.020 
02:15	70.8	70.8	70.8	91	68.0	0	1	68	0.00	30.015 
02:20	70.8	70.8	70.8	91	68.0	0	1	68	0.00	30.015 
02:25	70.6	70.6	70.6	91	67.8	0	0	---	0.00	30.015 
02:30	70.6	70.6	70.6	91	67.8	0	1	68	0.00	30.013 
02:35	70.6	70.6	70.6	91	67.8	0	1	68	0.00	30.013 
02:40	70.4	70.4	70.4	91	67.6	0	2	68	0.00	30.013 
02:45	70.4	70.4	70.4	92	68.0	0	1	68	0.00	30.007 
02:50	70.4	70.4	70.4	92	68.0	0	2	68	0.00	30.007 
02:55	70.3	70.3	70.3	92	67.9	0	0	---	0.00	30.007 
03:00	70.3	70.3	70.3	92	67.9	0	1	68	0.00	30.006 
03:05	70.1	70.1	70.1	92	67.7	0	1	68	0.00	30.006 
03:10	70.1	70.1	70.1	92	67.7	0	1	68	0.00	30.006 
03:15	70.1	70.1	70.1	92	67.7	0	1	68	0.00	30.005 
03:20	69.9	69.9	69.9	92	67.5	0	0	---	0.00	30.005 
03:25	69.8	69.8	69.8	92	67.4	0	1	68	0.00	30.005 
03:30	69.8	69.8	69.8	92	67.4	0	0	---	0.00	30.004 
03:35	69.6	69.6	69.6	92	67.2	0	0	---	0.00	30.004 
03:40	69.6	69.6	69.6	92	67.2	0	1	68	0.00	30.004 
03:45	69.4	69.4	69.4	92	67.0	0	0	---	0.00	29.999 
03:50	69.4	69.4	69.4	92	67.0	0	0	---	0.00	29.999 
03:55	69.4	69.4	69.4	92	67.0	0	0	---	0.00	29.999 
04:00	69.3	69.3	69.3	93	67.2	0	0	---	0.00	30.001 
04:05	69.3	69.3	69.3	93	67.2	0	0	---	0.00	30.001 
04:10	69.4	69.4	69.4	93	67.3	0	0	---	0.00	30.001 
04:15	69.4	69.4	69.4	93	67.3	0	0	---	0.00	30.001 
04:20	69.4	69.4	69.4	93	67.3	0	0	---	0.00	30.001 
04:25	69.4	69.4	69.4	93	67.3	0	0	---	0.00	30.001 
04:30	69.6	69.6	69.6	93	67.5	0	0	---	0.00	29.995 
04:35	69.6	69.6	69.6	93	67.5	0	1	68	0.00	29.995 
04:40	69.6	69.6	69.6	93	67.5	0	0	---	0.00	29.995 
04:45	69.6	69.6	69.6	93	67.5	0	0	---	0.00	29.994 
04:50	69.6	69.6	69.6	93	67.5	0	1	68	0.00	29.994 
04:55	69.4	69.4	69.4	93	67.3	0	0	---	0.00	29.994 
05:00	69.4	69.4	69.4	93	67.3	0	0	---	0.00	29.995 
05:05	69.3	69.3	69.3	93	67.2	0	0	---	0.00	29.995 
05:10	69.3	69.3	69.3	93	67.2	0	0	---	0.00	29.995 
05:15	69.1	69.1	69.1	93	67.0	0	0	---	0.00	29.998 
05:20	69.1	69.1	69.1	93	67.0	0	0	---	0.00	29.998 
05:25	68.9	68.9	68.9	93	66.8	0	0	---	0.00	29.998 
05:30	68.8	68.8	68.8	93	66.7	0	0	---	0.00	29.999 
05:35	68.6	68.6	68.6	93	66.5	0	0	---	0.00	29.999 
05:40	68.6	68.6	68.6	93	66.5	0	0	---	0.00	29.999 
05:45	68.6	68.6	68.6	93	66.5	0	0	---	0.00	30.004 
05:50	68.4	68.4	68.4	93	66.3	0	0	---	0.00	30.004 
05:55	68.4	68.4	68.4	93	66.3	0	0	---	0.00	30.004 
06:00	68.3	68.3	68.3	93	66.2	0	0	---	0.00	30.009 
06:05	68.3	68.3	68.3	93	66.2	0	0	---	0.00	30.009 
06:10	68.1	68.1	68.1	94	66.3	0	0	---	0.00	30.009 
06:15	68.1	68.1	68.1	94	66.3	0	0	---	0.00	30.013 
06:20	68.3	68.3	68.3	94	66.5	0	0	---	0.00	30.013 
06:25	68.4	68.4	68.4	94	66.6	0	0	---	0.00	30.013 
06:30	68.4	68.4	68.4	94	66.6	0	0	---	0.00	30.017 
06:35	68.6	68.6	68.6	94	66.8	0	0	---	0.00	30.017 
06:40	68.6	68.6	68.6	94	66.8	0	0	---	0.00	30.017 
06:45	68.6	68.6	68.6	94	66.8	0	0	---	0.00	30.021 
06:50	68.6	68.6	68.6	94	66.8	0	0	---	0.00	30.021 
06:55	68.4	68.4	68.4	94	66.6	0	0	---	0.00	30.021 
07:00	68.4	68.4	68.4	94	66.6	0	0	---	0.00	30.023 
07:05	68.3	68.3	68.3	94	66.5	0	0	---	0.00	30.023 
07:10	68.3	68.3	68.3	94	66.5	0	0	---	0.00	30.023 
07:15	68.3	68.3	68.3	94	66.5	0	0	---	0.00	30.026 
07:20	68.3	68.3	68.3	94	66.5	0	0	---	0.00	30.026 
07:25	68.4	68.4	68.4	95	66.9	0	1	68	0.00	30.026 
07:30	68.4	68.4	68.4	95	66.9	0	1	68	0.00	30.026 
07:35	68.4	68.4	68.4	95	66.9	0	0	---	0.00	30.026 
07:40	68.4	68.4	68.4	95	66.9	0	1	68	0.00	30.026 
07:45	68.4	68.4	68.4	95	66.9	0	1	68	0.00	30.027 
07:50	68.4	68.4	68.4	95	66.9	0	1	68	0.00	30.027 
07:55	68.6	68.6	68.6	95	67.1	0	1	68	0.00	30.027 
08:00	68.6	68.6	68.6	95	67.1	0	1	68	0.00	30.029 
08:05	68.9	68.9	68.9	95	67.4	0	2	68	0.00	30.029 
08:10	69.1	69.1	69.1	95	67.6	0	2	68	0.00	30.029 
08:15	69.3	69.3	69.3	95	67.8	0	1	68	0.00	30.040 
08:20	69.6	69.6	69.6	94	67.8	0	2	68	0.00	30.040 
08:25	69.8	69.8	69.8	94	68.0	1	2	68	0.00	30.040 
08:30	69.9	69.9	69.9	94	68.1	0	2	68	0.00	30.036 
08:35	70.1	70.1	70.1	94	68.3	0	1	68	0.00	30.036 
08:40	70.4	70.4	70.4	93	68.3	0	1	68	0.00	30.036 
08:45	70.6	70.6	70.6	93	68.5	0	1	68	0.00	30.035 
08:50	70.8	70.8	70.8	93	68.7	0	1	68	0.00	30.035 
08:55	70.9	70.9	70.9	93	68.8	0	1	180	0.00	30.035 
09:00	71.1	71.1	71.1	92	68.7	0	1	180	0.00	30.031 
09:05	71.6	71.6	71.6	92	69.1	0	2	112	0.00	30.031 
09:10	72.0	72.0	72.0	91	69.2	1	3	112	0.00	30.031 
09:15	72.3	72.3	72.3	91	69.5	0	2	112	0.00	30.039 
09:20	72.8	72.8	72.8	90	69.7	0	1	112	0.00	30.039 
09:25	73.2	73.2	73.2	90	70.1	0	2	112	0.00	30.039 
09:30	73.3	73.3	73.3	89	69.9	0	1	112	0.00	30.037 
09:35	73.9	73.9	73.9	88	70.1	0	1	112	0.00	30.037 
09:40	74.2	74.2	74.2	87	70.1	0	1	112	0.00	30.037 
09:45	74.6	74.6	74.6	87	70.5	0	1	112	0.00	30.038 
09:50	74.9	74.9	74.9	85	70.1	0	3	112	0.00	30.038 
09:55	75.3	75.3	75.4	85	70.5	0	1	112	0.00	30.038 
10:00	75.4	75.4	75.8	83	69.9	0	1	112	0.00	30.035 
10:05	76.0	76.0	76.7	83	70.4	0	1	112	0.00	30.035 
10:10	76.3	76.3	77.4	81	70.0	0	1	112	0.00	30.035 
10:15	77.0	77.0	78.6	80	70.3	0	2	112	0.00	30.040 
10:20	77.6	77.6	79.6	79	70.6	0	0	---	0.00	30.040 
10:25	78.3	78.3	80.7	77	70.5	0	1	112	0.00	30.040 
10:30	79.0	79.0	81.8	75	70.4	0	1	112	0.00	30.039 
10:35	79.2	79.2	82.1	75	70.6	0	2	112	0.00	30.039 
10:40	79.4	79.4	82.4	74	70.4	0	1	112	0.00	30.039 
10:45	80.1	80.1	83.6	74	71.0	0	1	112	0.00	30.042 
10:50	81.1	81.1	85.3	73	71.6	0	1	112	0.00	30.042 
10:55	81.8	81.8	85.9	69	70.6	0	1	112	0.00	30.042 
11:00	81.8	81.8	86.3	71	71.5	0	2	112	0.00	30.042 
11:05	82.2	82.2	86.6	69	71.0	1	3	112	0.00	30.042 
11:10	82.4	82.4	86.5	67	70.3	0	2	112	0.00	30.042 
11:15	82.8	82.8	86.7	65	69.8	0	3	112	0.00	30.045 
11:20	83.6	83.6	87.9	64	70.1	0	2	112	0.00	30.045 
11:25	84.0	84.0	89.2	66	71.4	0	2	112	0.00	30.045 
11:30	84.5	84.5	89.0	62	70.0	0	2	112	0.00	30.041 
11:35	85.1	85.1	91.1	65	72.0	0	1	112	0.00	30.041 
11:40	85.7	85.7	91.2	62	71.1	0	4	112	0.00	30.041 
11:45	85.7	85.7	90.9	61	70.7	0	3	112	0.00	30.036 
11:50	85.1	85.1	90.1	62	70.6	0	2	112	0.00	30.036 
11:55	85.1	85.1	90.8	64	71.5	0	1	112	0.00	30.036 
12:00	85.7	85.7	92.0	64	72.1	0	1	112	0.00	30.033 
12:05	86.1	86.1	91.7	61	71.0	0	2	112	0.00	30.033 
12:10	86.1	86.1	91.7	61	71.0	0	2	112	0.00	30.033 
12:15	86.5	86.5	91.7	59	70.4	0	2	112	0.00	30.029 
12:20	86.7	86.7	92.5	60	71.1	0	2	112	0.00	30.029 
12:25	87.0	87.0	92.7	59	70.9	0	2	112	0.00	30.029 
12:30	87.4	87.4	93.5	59	71.3	0	1	112	0.00	30.026 
12:35	87.8	87.8	93.8	58	71.1	0	2	112	0.00	30.026 
12:40	88.2	88.2	95.1	59	72.0	0	2	112	0.00	30.026 
12:45	88.6	88.6	95.5	58	71.9	0	3	112	0.00	30.016 
12:50	88.8	88.8	95.9	58	72.1	0	2	112	0.00	30.016 
12:55	88.6	88.6	95.5	58	71.9	1	3	112	0.00	30.016 
13:00	88.6	88.6	96.0	59	72.4	1	2	112	0.00	30.011 
13:05	88.4	88.4	95.1	58	71.7	0	2	112	0.00	30.011 
13:10	87.8	87.8	94.3	59	71.7	0	2	112	0.00	30.011 
13:15	88.0	88.0	95.6	61	72.8	0	2	112	0.00	30.012 
13:20	88.4	88.4	95.1	58	71.7	1	3	112	0.00	30.012 
13:25	87.8	87.8	94.7	60	72.1	1	2	112	0.00	30.012 
13:30	87.2	87.2	93.9	61	72.1	0	2	112	0.00	30.011 
13:35	87.4	87.4	94.8	62	72.7	0	1	158	0.00	30.011 
13:40	87.2	87.2	93.5	60	71.6	1	3	158	0.00	30.011 
13:45	87.2	87.2	93.9	61	72.1	0	2	112	0.00	30.007 
13:50	87.0	87.0	93.5	61	71.9	0	2	135	0.00	30.007 
13:55	87.0	87.0	93.5	61	71.9	0	3	135	0.00	30.007 
14:00	87.0	87.0	93.1	60	71.4	1	4	135	0.00	30.010 
14:05	86.7	86.7	93.3	62	72.1	1	3	135	0.00	30.010 
14:10	86.5	86.5	93.3	63	72.4	0	2	135	0.00	30.010 
14:15	86.5	86.5	93.7	64	72.8	0	1	135	0.00	30.010 
14:20	86.7	86.7	93.7	63	72.6	1	2	135	0.00	30.010 
14:25	87.0	87.0	93.9	62	72.4	0	2	135	0.00	30.010 
14:30	87.0	87.0	94.3	63	72.8	0	3	135	0.00	30.008 
14:35	86.7	86.7	93.7	63	72.6	0	1	135	0.00	30.008 
14:40	86.5	86.5	93.3	63	72.4	0	2	135	0.00	30.008 
14:45	86.3	86.3	92.8	63	72.2	0	1	135	0.00	30.006 
14:50	86.3	86.3	92.8	63	72.2	0	1	135	0.00	30.006 
14:55	86.3	86.3	92.8	63	72.2	0	1	135	0.00	30.006 
15:00	87.0	87.0	93.9	62	72.4	0	3	135	0.00	30.003 
15:05	87.4	87.4	93.9	60	71.8	1	4	135	0.00	30.003 
15:10	88.0	88.0	95.1	60	72.3	0	3	135	0.00	30.003 
15:15	88.2	88.2	95.6	60	72.5	0	3	135	0.00	30.000 
15:20	88.2	88.2	96.1	61	73.0	1	4	90	0.00	30.000 
15:25	88.4	88.4	95.5	59	72.2	0	2	158	0.00	30.000 
15:30	88.4	88.4	95.5	59	72.2	1	3	158	0.00	29.994 
15:35	88.4	88.4	95.5	59	72.2	1	3	68	0.00	29.994 
15:40	88.8	88.8	96.9	60	73.1	1	3	68	0.00	29.994 
15:45	89.0	89.0	97.4	60	73.3	0	2	68	0.00	29.995 
15:50	89.7	89.7	98.4	59	73.4	0	1	68	0.00	29.995 
15:55	89.9	89.9	96.3	54	71.0	0	2	68	0.00	29.995 
16:00	89.9	89.9	97.3	56	72.1	1	3	68	0.00	29.991 
16:05	89.7	89.7	97.4	57	72.4	0	2	68	0.00	29.991 
16:10	89.5	89.5	96.4	56	71.7	0	3	68	0.00	29.991 
16:15	89.5	89.5	97.4	58	72.7	0	1	68	0.00	29.997 
16:20	89.0	89.0	94.9	55	70.7	1	3	90	0.00	29.997 
16:25	88.8	88.8	94.5	55	70.5	1	3	90	0.00	29.997 
16:30	88.8	88.8	95.9	58	72.1	0	1	90	0.00	29.986 
16:35	88.8	88.8	95.4	57	71.6	0	1	112	0.00	29.986 
16:40	88.8	88.8	95.4	57	71.6	0	1	112	0.00	29.986 
16:45	88.6	88.6	95.0	57	71.4	0	2	112	0.00	29.990 
16:50	88.6	88.6	94.6	56	70.9	1	3	135	0.00	29.990 
16:55	88.6	88.6	95.0	57	71.4	0	2	135	0.00	29.990 
17:00	88.8	88.8	95.4	57	71.6	0	2	135	0.00	29.991 
17:05	88.8	88.8	94.5	55	70.5	0	1	135	0.00	29.991 
17:10	88.2	88.2	93.8	56	70.5	0	2	135	0.00	29.991 
17:15	87.8	87.8	94.3	59	71.7	0	1	135	0.00	30.000 
17:20	87.6	87.6	93.9	59	71.5	0	1	135	0.00	30.000 
17:25	87.2	87.2	93.5	60	71.6	0	1	135	0.00	30.000 
17:30	87.2	87.2	93.9	61	72.1	0	1	135	0.00	29.998 
17:35	87.0	87.0	93.5	61	71.9	0	2	135	0.00	29.998 
17:40	87.2	87.2	93.9	61	72.1	0	1	135	0.00	29.998 
17:45	87.2	87.2	93.5	60	71.6	0	1	135	0.00	29.985 
17:50	87.2	87.2	93.5	60	71.6	0	1	135	0.00	29.985 
17:55	87.4	87.4	94.3	61	72.3	0	1	135	0.00	29.985 
18:00	87.4	87.4	94.3	61	72.3	0	2	135	0.00	30.007 
18:05	87.0	87.0	93.5	61	71.9	0	1	135	0.00	30.007 
18:10	86.5	86.5	92.8	62	71.9	0	0	---	0.00	30.007 
18:15	86.1	86.1	92.4	63	72.0	0	1	135	0.00	29.999 
18:20	85.7	85.7	92.0	64	72.1	0	1	135	0.00	29.999 
18:25	85.3	85.3	91.5	65	72.2	0	1	135	0.00	29.999 
18:30	85.1	85.1	91.1	65	72.0	0	1	135	0.00	29.995 
18:35	84.7	84.7	90.6	66	72.1	0	0	---	0.00	29.995 
18:40	84.5	84.5	90.5	67	72.3	0	0	---	0.00	29.995 
18:45	84.3	84.3	90.5	68	72.6	0	1	135	0.00	29.986 
18:50	84.1	84.1	90.0	68	72.4	0	1	135	0.00	29.986 
18:55	84.0	84.0	90.2	69	72.7	0	1	135	0.00	29.986 
19:00	84.0	84.0	90.2	69	72.7	0	3	135	0.00	29.975 
19:05	83.8	83.8	89.7	69	72.5	0	2	68	0.00	29.975 
19:10	83.8	83.8	89.7	69	72.5	0	1	68	0.00	29.975 
19:15	83.6	83.6	89.6	70	72.8	0	0	---	0.00	29.986 
19:20	83.4	83.4	89.2	70	72.6	0	1	68	0.00	29.986 
19:25	83.2	83.2	88.8	70	72.4	0	2	68	0.00	29.986 
19:30	83.0	83.0	88.7	71	72.6	0	1	68	0.00	29.990 
19:35	82.8	82.8	88.2	71	72.4	0	2	68	0.00	29.990 
19:40	82.2	82.2	86.1	67	70.1	1	3	292	0.00	29.990 
19:45	81.6	81.6	84.4	63	67.8	0	2	292	0.00	29.991 
19:50	81.2	81.2	83.6	62	66.9	0	1	292	0.00	29.991 
19:55	80.7	80.7	82.7	60	65.5	0	1	292	0.00	29.991 
20:00	80.3	80.3	82.1	59	64.6	0	1	292	0.00	29.993 
20:05	79.9	79.9	81.5	58	63.8	0	1	292	0.00	29.993 
20:10	79.6	79.6	81.2	58	63.5	0	0	---	0.00	29.993 
20:15	79.4	79.4	80.9	58	63.3	0	0	---	0.00	29.982 
20:20	79.0	79.0	80.6	59	63.4	0	0	---	0.00	29.982 
20:25	78.6	78.6	80.2	59	63.1	0	0	---	0.00	29.982 
20:30	78.5	78.5	80.2	61	63.9	0	0	---	0.00	29.977 
20:35	78.3	78.3	80.0	60	63.2	0	0	---	0.00	29.977 
20:40	77.9	77.9	79.6	61	63.3	0	0	---	0.00	29.977 
20:45	77.9	77.9	79.6	62	63.8	0	0	---	0.00	29.977 
20:50	77.6	77.6	79.4	62	63.5	0	0	---	0.00	29.977 
20:55	77.4	77.4	79.2	63	63.8	0	0	---	0.00	29.977 
21:00	77.4	77.4	79.2	64	64.2	0	0	---	0.00	29.969 
21:05	77.2	77.2	79.0	65	64.5	0	0	---	0.00	29.969 
21:10	77.0	77.0	78.8	66	64.8	0	0	---	0.00	29.969 
21:15	76.8	76.8	78.6	66	64.6	0	0	---	0.00	29.968 
21:20	76.7	76.7	78.5	67	64.9	0	0	---	0.00	29.968 
21:25	76.3	76.3	78.0	68	64.9	0	0	---	0.00	29.968 
21:30	76.1	76.1	77.8	68	64.8	0	0	---	0.00	29.982 
21:35	75.8	75.8	77.5	69	64.9	0	0	---	0.00	29.982 
21:40	75.6	75.6	77.3	69	64.7	0	0	---	0.00	29.982 
21:45	75.4	75.4	77.1	70	64.9	0	0	---	0.00	29.986 
21:50	75.3	75.3	76.8	72	65.6	0	1	292	0.00	29.986 
21:55	75.1	75.1	76.7	71	65.0	0	0	---	0.00	29.986 
22:00	75.1	75.1	76.6	72	65.4	0	0	---	0.00	29.978 
22:05	74.9	74.9	74.9	72	65.2	0	0	---	0.00	29.978 
22:10	74.9	74.9	74.9	72	65.2	0	0	---	0.00	29.978 
22:15	74.7	74.7	74.7	73	65.5	0	0	---	0.00	29.974 
22:20	74.6	74.6	74.6	73	65.4	0	0	---	0.00	29.974 
22:25	74.6	74.6	74.6	74	65.7	0	0	---	0.00	29.974 
22:30	74.4	74.4	74.4	74	65.6	0	1	292	0.00	29.973 
22:35	74.4	74.4	74.4	74	65.6	0	0	---	0.00	29.973 
22:40	74.2	74.2	74.2	75	65.8	0	0	---	0.00	29.973 
22:45	74.2	74.2	74.2	75	65.8	0	0	---	0.00	29.980 
22:50	74.0	74.0	74.0	76	65.9	0	1	292	0.00	29.980 
22:55	73.9	73.9	73.9	76	65.8	0	0	---	0.00	29.980 
23:00	73.9	73.9	73.9	76	65.8	0	1	292	0.00	29.993 
23:05	73.7	73.7	73.7	75	65.3	0	1	292	0.00	29.993 
23:10	73.7	73.7	73.7	75	65.3	0	0	---	0.00	29.993 
23:15	73.7	73.7	73.7	75	65.3	0	0	---	0.00	29.986 
23:20	73.5	73.5	73.5	75	65.1	0	0	---	0.00	29.986 
23:25	73.3	73.3	73.3	75	64.9	0	0	---	0.00	29.986 
23:30	73.2	73.2	73.2	76	65.2	0	1	292	0.00	30.009 
23:35	73.3	73.3	73.3	76	65.3	1	3	292	0.00	30.009 
23:40	73.3	73.3	73.3	76	65.3	3	5	292	0.00	30.009 
23:45	73.3	73.3	73.3	76	65.3	1	4	270	0.00	30.018 
23:50	73.2	73.2	73.2	76	65.2	0	2	270	0.00	30.018 
23:55	73.0	73.0	73.0	76	65.0	0	0	---	0.00	30.018 

CoCoRaHS
IN-AL-39
A2 Web Hosting
Creative Commons License
GoDaddy
search engine by freefind advanced

loaded 2018-11-14 00:43:30 • last modified 2010-11-18 10:43:29
Privacy PolicyDisclaimer
• wx.awcolley.com is powered by PmWiki v.2002016 •
• all content (unless otherwise noted) © 2018 A W Colley